Time,TemperatureF,DewpointF,PressureIn,WindDirection,WindDirectionDegrees,WindSpeedMPH,WindSpeedGustMPH,Humidity,HourlyPrecipIn,Conditions,Clouds,dailyrainin,SoftwareType,DateUTC
2013-01-08 00:04:00,27.0,22.0,-100.00,NE,45,0.0,1.0,81,0.00,,,0.00,,2013-01-08 05:04:00,
2013-01-08 00:12:00,27.0,22.0,-100.00,NE,45,0.0,1.0,81,0.00,,,0.00,,2013-01-08 05:12:00,
2013-01-08 00:22:00,26.0,20.0,-100.00,NNW,330,1.0,1.0,78,0.00,,,0.00,,2013-01-08 05:22:00,
2013-01-08 00:33:00,26.0,20.0,-100.00,NNW,330,1.0,1.0,78,0.00,,,0.00,,2013-01-08 05:33:00,
2013-01-08 00:43:00,26.0,22.0,-100.00,NNW,346,0.0,1.0,83,0.00,,,0.00,,2013-01-08 05:43:00,
2013-01-08 00:53:00,26.0,22.0,-100.00,NNW,346,0.0,1.0,83,0.00,,,0.00,,2013-01-08 05:53:00,
2013-01-08 01:03:00,25.0,20.0,-100.00,NNW,343,1.0,1.0,81,0.00,,,0.00,,2013-01-08 06:03:00,
2013-01-08 01:12:00,25.0,20.0,-100.00,NNW,343,1.0,1.0,81,0.00,,,0.00,,2013-01-08 06:12:00,
2013-01-08 01:22:00,26.0,22.0,-100.00,NNE,18,0.0,0.0,82,0.00,,,0.00,,2013-01-08 06:22:00,
2013-01-08 01:33:00,26.0,22.0,-100.00,NNE,18,0.0,0.0,82,0.00,,,0.00,,2013-01-08 06:33:00,
2013-01-08 01:42:00,28.0,22.0,-100.00,SSW,199,1.0,1.0,77,0.00,,,0.00,,2013-01-08 06:42:00,
2013-01-08 01:53:00,28.0,22.0,-100.00,SSW,199,1.0,1.0,77,0.00,,,0.00,,2013-01-08 06:53:00,
2013-01-08 02:02:00,28.0,22.0,-100.00,South,189,3.0,4.0,77,0.00,,,0.00,,2013-01-08 07:02:00,
2013-01-08 02:12:00,28.0,22.0,-100.00,South,189,3.0,4.0,77,0.00,,,0.00,,2013-01-08 07:12:00,
2013-01-08 02:22:00,27.0,22.0,-100.00,SSW,198,2.0,2.0,82,0.00,,,0.00,,2013-01-08 07:22:00,
2013-01-08 02:32:00,27.0,22.0,-100.00,SSW,198,2.0,2.0,82,0.00,,,0.00,,2013-01-08 07:32:00,
2013-01-08 02:42:00,23.0,19.0,-100.00,NNW,342,1.0,2.0,84,0.00,,,0.00,,2013-01-08 07:42:00,
2013-01-08 02:52:00,23.0,19.0,-100.00,NNW,342,1.0,2.0,84,0.00,,,0.00,,2013-01-08 07:52:00,
2013-01-08 03:02:00,23.0,20.0,-100.00,NNE,16,1.0,2.0,89,0.00,,,0.00,,2013-01-08 08:02:00,
2013-01-08 03:12:00,23.0,20.0,-100.00,NNE,16,1.0,2.0,89,0.00,,,0.00,,2013-01-08 08:12:00,
2013-01-08 03:22:00,23.0,20.0,-100.00,NNE,16,1.0,2.0,89,0.00,,,0.00,,2013-01-08 08:22:00,
2013-01-08 03:42:00,29.0,24.0,-100.00,SSW,198,4.0,6.0,81,0.00,,,0.00,,2013-01-08 08:42:00,
2013-01-08 03:53:00,29.0,24.0,-100.00,SSW,198,4.0,6.0,81,0.00,,,0.00,,2013-01-08 08:53:00,
2013-01-08 04:02:00,22.0,19.0,-100.00,NNW,343,2.0,3.0,87,0.00,,,0.00,,2013-01-08 09:02:00,
2013-01-08 04:12:00,22.0,19.0,-100.00,NNW,343,2.0,3.0,87,0.00,,,0.00,,2013-01-08 09:12:00,
2013-01-08 04:22:00,24.0,21.0,-100.00,SSE,168,2.0,3.0,86,0.00,,,0.00,,2013-01-08 09:22:00,
2013-01-08 04:33:00,24.0,21.0,-100.00,SSE,168,2.0,3.0,86,0.00,,,0.00,,2013-01-08 09:33:00,
2013-01-08 04:42:00,24.0,21.0,-100.00,SW,232,1.0,2.0,88,0.00,,,0.00,,2013-01-08 09:42:00,
2013-01-08 04:53:00,24.0,21.0,-100.00,SW,232,1.0,2.0,88,0.00,,,0.00,,2013-01-08 09:53:00,
2013-01-08 05:03:00,23.0,20.0,-100.00,WSW,251,3.0,4.0,89,0.00,,,0.00,,2013-01-08 10:03:00,
2013-01-08 05:12:00,23.0,20.0,-100.00,WSW,251,3.0,4.0,89,0.00,,,0.00,,2013-01-08 10:12:00,
2013-01-08 05:22:00,21.0,17.0,-100.00,NNW,346,1.0,2.0,87,0.00,,,0.00,,2013-01-08 10:22:00,
2013-01-08 05:33:00,21.0,17.0,-100.00,NNW,346,1.0,2.0,87,0.00,,,0.00,,2013-01-08 10:33:00,
2013-01-08 05:42:00,24.0,22.0,-100.00,WNW,289,0.0,0.0,92,0.00,,,0.00,,2013-01-08 10:42:00,
2013-01-08 05:52:00,24.0,22.0,-100.00,WNW,289,0.0,0.0,92,0.00,,,0.00,,2013-01-08 10:52:00,
2013-01-08 06:02:00,23.0,21.0,-100.00,North,349,1.0,2.0,89,0.00,,,0.00,,2013-01-08 11:02:00,
2013-01-08 06:12:00,23.0,21.0,-100.00,North,349,1.0,2.0,89,0.00,,,0.00,,2013-01-08 11:12:00,
2013-01-08 06:23:00,21.0,18.0,-100.00,NNW,337,0.0,1.0,88,0.00,,,0.00,,2013-01-08 11:23:00,
2013-01-08 06:33:00,21.0,18.0,-100.00,NNW,337,0.0,1.0,88,0.00,,,0.00,,2013-01-08 11:33:00,
2013-01-08 06:42:00,24.0,21.0,-100.00,SE,144,2.0,3.0,90,0.00,,,0.00,,2013-01-08 11:42:00,
2013-01-08 06:53:00,24.0,21.0,-100.00,SE,144,2.0,3.0,90,0.00,,,0.00,,2013-01-08 11:53:00,
2013-01-08 07:03:00,21.0,19.0,-100.00,NE,34,0.0,0.0,92,0.00,,,0.00,,2013-01-08 12:03:00,
2013-01-08 07:12:00,21.0,19.0,-100.00,NE,34,0.0,0.0,92,0.00,,,0.00,,2013-01-08 12:12:00,
2013-01-08 07:22:00,23.0,20.0,-100.00,North,11,1.0,2.0,89,0.00,,,0.00,,2013-01-08 12:22:00,
2013-01-08 07:33:00,23.0,20.0,-100.00,North,11,1.0,2.0,89,0.00,,,0.00,,2013-01-08 12:33:00,
2013-01-08 07:43:00,22.0,20.0,-100.00,East,79,0.0,1.0,92,0.00,,,0.00,,2013-01-08 12:43:00,
2013-01-08 07:53:00,22.0,20.0,-100.00,East,79,0.0,1.0,92,0.00,,,0.00,,2013-01-08 12:53:00,
2013-01-08 08:03:00,21.0,18.0,-100.00,NNW,330,1.0,2.0,89,0.00,,,0.00,,2013-01-08 13:03:00,
2013-01-08 08:13:00,21.0,18.0,-100.00,NNW,330,1.0,2.0,89,0.00,,,0.00,,2013-01-08 13:13:00,
2013-01-08 08:22:00,21.0,18.0,-100.00,NNW,330,1.0,2.0,89,0.00,,,0.00,,2013-01-08 13:22:00,
2013-01-08 08:43:00,22.0,19.0,-100.00,NNW,346,2.0,3.0,88,0.00,,,0.00,,2013-01-08 13:43:00,
2013-01-08 08:53:00,22.0,19.0,-100.00,NNW,346,2.0,3.0,88,0.00,,,0.00,,2013-01-08 13:53:00,
2013-01-08 09:03:00,23.0,21.0,-100.00,North,356,0.0,1.0,91,0.00,,,0.00,,2013-01-08 14:03:00,
2013-01-08 09:13:00,23.0,21.0,-100.00,North,356,0.0,1.0,91,0.00,,,0.00,,2013-01-08 14:13:00,
2013-01-08 09:23:00,27.0,23.0,-100.00,NW,326,0.0,2.0,86,0.00,,,0.00,,2013-01-08 14:23:00,
2013-01-08 09:33:00,27.0,23.0,-100.00,NW,326,0.0,2.0,86,0.00,,,0.00,,2013-01-08 14:33:00,
2013-01-08 09:43:00,27.0,23.0,-100.00,North,349,3.0,4.0,83,0.00,,,0.00,,2013-01-08 14:43:00,
2013-01-08 09:53:00,27.0,23.0,-100.00,North,349,3.0,4.0,83,0.00,,,0.00,,2013-01-08 14:53:00,
2013-01-08 10:03:00,33.0,27.0,-100.00,ENE,73,2.0,4.0,78,0.00,,,0.00,,2013-01-08 15:03:00,
2013-01-08 10:12:00,33.0,27.0,-100.00,ENE,73,2.0,4.0,78,0.00,,,0.00,,2013-01-08 15:12:00,
2013-01-08 10:23:00,34.0,27.0,-100.00,NE,49,2.0,4.0,75,0.00,,,0.00,,2013-01-08 15:23:00,
2013-01-08 10:33:00,34.0,27.0,-100.00,NE,49,2.0,4.0,75,0.00,,,0.00,,2013-01-08 15:33:00,
2013-01-08 10:43:00,36.0,28.0,-100.00,North,1,1.0,2.0,73,0.00,,,0.00,,2013-01-08 15:43:00,
2013-01-08 10:53:00,36.0,28.0,-100.00,North,1,1.0,2.0,73,0.00,,,0.00,,2013-01-08 15:53:00,
2013-01-08 11:03:00,39.0,29.0,-100.00,East,86,0.0,1.0,67,0.00,,,0.00,,2013-01-08 16:03:00,
2013-01-08 11:13:00,39.0,29.0,-100.00,East,86,0.0,1.0,67,0.00,,,0.00,,2013-01-08 16:13:00,
2013-01-08 11:23:00,39.0,29.0,-100.00,East,86,0.0,1.0,67,0.00,,,0.00,,2013-01-08 16:23:00,
2013-01-08 11:34:00,41.0,29.0,-100.00,NNE,13,2.0,2.0,63,0.00,,,0.00,,2013-01-08 16:34:00,
2013-01-08 11:43:00,43.0,30.0,-100.00,ESE,103,2.0,3.0,59,0.00,,,0.00,,2013-01-08 16:43:00,
2013-01-08 11:52:00,43.0,30.0,-100.00,ESE,103,2.0,3.0,59,0.00,,,0.00,,2013-01-08 16:52:00,
2013-01-08 12:03:00,46.0,30.0,-100.00,NNW,329,2.0,3.0,52,0.00,,,0.00,,2013-01-08 17:03:00,
2013-01-08 12:13:00,46.0,30.0,-100.00,NNW,329,2.0,3.0,52,0.00,,,0.00,,2013-01-08 17:13:00,
2013-01-08 12:23:00,47.0,29.0,-100.00,SSE,168,3.0,5.0,50,0.00,,,0.00,,2013-01-08 17:23:00,
2013-01-08 12:34:00,47.0,29.0,-100.00,SSE,168,3.0,5.0,50,0.00,,,0.00,,2013-01-08 17:34:00,
2013-01-08 12:43:00,47.0,29.0,-100.00,SSE,168,3.0,5.0,50,0.00,,,0.00,,2013-01-08 17:43:00,
2013-01-08 13:04:00,48.0,29.0,-100.00,South,181,6.0,8.0,48,0.00,,,0.00,,2013-01-08 18:04:00,
2013-01-08 13:13:00,48.0,29.0,-100.00,South,181,6.0,8.0,48,0.00,,,0.00,,2013-01-08 18:13:00,
2013-01-08 13:23:00,48.0,29.0,-100.00,South,171,6.0,9.0,48,0.00,,,0.00,,2013-01-08 18:23:00,
2013-01-08 13:33:00,48.0,29.0,-100.00,South,171,6.0,9.0,48,0.00,,,0.00,,2013-01-08 18:33:00,
2013-01-08 13:43:00,48.0,29.0,-100.00,South,169,9.0,11.0,47,0.00,,,0.00,,2013-01-08 18:43:00,
2013-01-08 13:53:00,48.0,29.0,-100.00,South,169,9.0,11.0,47,0.00,,,0.00,,2013-01-08 18:53:00,
2013-01-08 14:03:00,48.0,29.0,-100.00,SSE,162,7.0,9.0,46,0.00,,,0.00,,2013-01-08 19:03:00,
2013-01-08 14:12:00,48.0,29.0,-100.00,SSE,162,7.0,9.0,46,0.00,,,0.00,,2013-01-08 19:12:00,
2013-01-08 14:23:00,49.0,29.0,-100.00,SSE,164,8.0,10.0,45,0.00,,,0.00,,2013-01-08 19:23:00,
2013-01-08 14:33:00,49.0,29.0,-100.00,SSE,164,8.0,10.0,45,0.00,,,0.00,,2013-01-08 19:33:00,
2013-01-08 14:43:00,-999.0,28.0,-100.00,South,178,8.0,11.0,43,0.00,,,0.00,,2013-01-08 19:43:00,
2013-01-08 14:53:00,-999.0,28.0,-100.00,South,178,8.0,11.0,43,0.00,,,0.00,,2013-01-08 19:53:00,
2013-01-08 15:03:00,-999.0,28.0,-100.00,South,178,8.0,11.0,43,0.00,,,0.00,,2013-01-08 20:03:00,
2013-01-08 15:23:00,52.0,27.0,-100.00,SSW,210,6.0,9.0,39,0.00,,,0.00,,2013-01-08 20:23:00,
2013-01-08 15:33:00,52.0,27.0,-100.00,SSW,210,6.0,9.0,39,0.00,,,0.00,,2013-01-08 20:33:00,
2013-01-08 15:43:00,51.0,28.0,-100.00,South,176,9.0,12.0,42,0.00,,,0.00,,2013-01-08 20:43:00,
2013-01-08 15:54:00,51.0,28.0,-100.00,South,176,9.0,12.0,42,0.00,,,0.00,,2013-01-08 20:54:00,
2013-01-08 16:03:00,51.0,28.0,-100.00,SSE,168,8.0,10.0,41,0.00,,,0.00,,2013-01-08 21:03:00,
2013-01-08 16:13:00,51.0,28.0,-100.00,SSE,168,8.0,10.0,41,0.00,,,0.00,,2013-01-08 21:13:00,
2013-01-08 16:23:00,51.0,28.0,-100.00,South,178,7.0,8.0,41,0.00,,,0.00,,2013-01-08 21:23:00,
2013-01-08 16:33:00,51.0,28.0,-100.00,South,178,7.0,8.0,41,0.00,,,0.00,,2013-01-08 21:33:00,
2013-01-08 16:43:00,51.0,27.0,-100.00,South,181,5.0,6.0,40,0.00,,,0.00,,2013-01-08 21:43:00,
2013-01-08 16:53:00,51.0,27.0,-100.00,South,181,5.0,6.0,40,0.00,,,0.00,,2013-01-08 21:53:00,
2013-01-08 17:04:00,50.0,27.0,-100.00,South,175,7.0,8.0,40,0.00,,,0.00,,2013-01-08 22:04:00,
2013-01-08 17:12:00,50.0,27.0,-100.00,South,175,7.0,8.0,40,0.00,,,0.00,,2013-01-08 22:12:00,
2013-01-08 17:23:00,49.0,27.0,-100.00,South,182,6.0,9.0,41,0.00,,,0.00,,2013-01-08 22:23:00,
2013-01-08 17:33:00,49.0,27.0,-100.00,South,182,6.0,9.0,41,0.00,,,0.00,,2013-01-08 22:33:00,
2013-01-08 17:43:00,48.0,27.0,-100.00,South,186,4.0,6.0,45,0.00,,,0.00,,2013-01-08 22:43:00,
2013-01-08 17:53:00,48.0,27.0,-100.00,South,186,4.0,6.0,45,0.00,,,0.00,,2013-01-08 22:53:00,
2013-01-08 18:03:00,47.0,27.0,-100.00,South,182,4.0,5.0,47,0.00,,,0.00,,2013-01-08 23:03:00,
2013-01-08 18:13:00,47.0,27.0,-100.00,South,182,4.0,5.0,47,0.00,,,0.00,,2013-01-08 23:13:00,
2013-01-08 18:23:00,45.0,27.0,-100.00,South,186,3.0,4.0,50,0.00,,,0.00,,2013-01-08 23:23:00,
2013-01-08 18:33:00,45.0,27.0,-100.00,South,186,3.0,4.0,50,0.00,,,0.00,,2013-01-08 23:33:00,
2013-01-08 18:43:00,43.0,28.0,-100.00,SSW,195,2.0,2.0,55,0.00,,,0.00,,2013-01-08 23:43:00,
2013-01-08 18:53:00,43.0,28.0,-100.00,SSW,195,2.0,2.0,55,0.00,,,0.00,,2013-01-08 23:53:00,
2013-01-08 19:03:00,42.0,27.0,-100.00,WNW,288,1.0,2.0,57,0.00,,,0.00,,2013-01-09 00:03:00,
2013-01-08 19:13:00,42.0,27.0,-100.00,WNW,288,1.0,2.0,57,0.00,,,0.00,,2013-01-09 00:13:00,
2013-01-08 19:22:00,38.0,27.0,-100.00,NW,306,1.0,1.0,65,0.00,,,0.00,,2013-01-09 00:22:00,
2013-01-08 19:33:00,38.0,27.0,-100.00,NW,306,1.0,1.0,65,0.00,,,0.00,,2013-01-09 00:33:00,
2013-01-08 19:43:00,38.0,27.0,-100.00,WNW,299,0.0,0.0,64,0.00,,,0.00,,2013-01-09 00:43:00,
2013-01-08 19:53:00,38.0,27.0,-100.00,WNW,299,0.0,0.0,64,0.00,,,0.00,,2013-01-09 00:53:00,
2013-01-08 20:02:00,37.0,27.0,-100.00,SSW,198,0.0,2.0,66,0.00,,,0.00,,2013-01-09 01:02:00,
2013-01-08 20:12:00,37.0,27.0,-100.00,SSW,198,0.0,2.0,66,0.00,,,0.00,,2013-01-09 01:12:00,
2013-01-08 20:22:00,37.0,27.0,-100.00,SSW,198,0.0,2.0,66,0.00,,,0.00,,2013-01-09 01:22:00,
2013-01-08 20:43:00,37.0,27.0,-100.00,WNW,294,0.0,1.0,68,0.00,,,0.00,,2013-01-09 01:43:00,
2013-01-08 20:53:00,37.0,27.0,-100.00,WNW,294,0.0,1.0,68,0.00,,,0.00,,2013-01-09 01:53:00,
2013-01-08 21:02:00,36.0,27.0,-100.00,North,349,0.0,1.0,72,0.00,,,0.00,,2013-01-09 02:02:00,
2013-01-08 21:12:00,36.0,27.0,-100.00,North,349,0.0,1.0,72,0.00,,,0.00,,2013-01-09 02:12:00,
2013-01-08 21:23:00,33.0,26.0,-100.00,NNW,346,1.0,1.0,74,0.00,,,0.00,,2013-01-09 02:23:00,
2013-01-08 21:33:00,33.0,26.0,-100.00,NNW,346,1.0,1.0,74,0.00,,,0.00,,2013-01-09 02:33:00,
2013-01-08 21:43:00,34.0,27.0,-100.00,NNE,16,2.0,2.0,77,0.00,,,0.00,,2013-01-09 02:43:00,
2013-01-08 21:53:00,34.0,27.0,-100.00,NNE,16,2.0,2.0,77,0.00,,,0.00,,2013-01-09 02:53:00,
2013-01-08 22:03:00,35.0,28.0,-100.00,NNW,346,0.0,1.0,75,0.00,,,0.00,,2013-01-09 03:03:00,
2013-01-08 22:12:00,35.0,28.0,-100.00,NNW,346,0.0,1.0,75,0.00,,,0.00,,2013-01-09 03:12:00,
2013-01-08 22:22:00,33.0,28.0,-100.00,NNW,339,0.0,0.0,83,0.00,,,0.00,,2013-01-09 03:22:00,
2013-01-08 22:33:00,33.0,28.0,-100.00,NNW,339,0.0,0.0,83,0.00,,,0.00,,2013-01-09 03:33:00,
2013-01-08 22:43:00,36.0,28.0,-100.00,South,171,1.0,2.0,74,0.00,,,0.00,,2013-01-09 03:43:00,
2013-01-08 22:53:00,36.0,28.0,-100.00,South,171,1.0,2.0,74,0.00,,,0.00,,2013-01-09 03:53:00,
2013-01-08 23:02:00,33.0,28.0,-100.00,NNW,330,0.0,0.0,84,0.00,,,0.00,,2013-01-09 04:02:00,
2013-01-08 23:12:00,33.0,28.0,-100.00,NNW,330,0.0,0.0,84,0.00,,,0.00,,2013-01-09 04:12:00,
2013-01-08 23:22:00,34.0,29.0,-100.00,SSE,164,2.0,2.0,85,0.00,,,0.00,,2013-01-09 04:22:00,
2013-01-08 23:33:00,34.0,29.0,-100.00,SSE,164,2.0,2.0,85,0.00,,,0.00,,2013-01-09 04:33:00,
2013-01-08 23:43:00,34.0,29.0,-100.00,SSW,198,3.0,3.0,82,0.00,,,0.00,,2013-01-09 04:43:00,
2013-01-08 23:53:00,34.0,29.0,-100.00,SSW,198,3.0,3.0,82,0.00,,,0.00,,2013-01-09 04:53:00,